Time;durP1;ratioP1;P1;durP2;ratioP2;P2;SDS_P1;SDS_P2;PMS_P1;PMS_P2;Temp;Humidity;BMP_temperature;BMP_pressure;BME280_temperature;BME280_humidity;BME280_pressure;Samples;Min_cycle;Max_cycle;Signal;HPM_P1;HPM_P2
2021/12/06 00:00:52;;;;;;;17.63;15.03;;;3.10;99.90;;;;;;4999814;28;20648;-85
2021/12/06 00:03:26;;;;;;;17.50;14.23;;;3.10;99.90;;;;;;4995701;28;20296;-84
2021/12/06 00:05:52;;;;;;;16.90;14.03;;;3.10;99.90;;;;;;4995000;28;20541;-84
2021/12/06 00:08:18;;;;;;;16.43;14.50;;;3.10;99.90;;;;;;4994832;28;20172;-84
2021/12/06 00:10:44;;;;;;;17.20;14.77;;;3.10;99.90;;;;;;4994781;28;20271;-85
2021/12/06 00:13:11;;;;;;;16.97;14.63;;;3.10;99.90;;;;;;4994714;28;20574;-85
2021/12/06 00:15:38;;;;;;;16.70;13.83;;;3.10;99.90;;;;;;4994732;28;20662;-85
2021/12/06 00:18:04;;;;;;;17.17;14.67;;;3.20;99.90;;;;;;4994360;28;20587;-86
2021/12/06 00:20:30;;;;;;;16.97;15.17;;;3.20;99.90;;;;;;4994496;28;20260;-85
2021/12/06 00:22:55;;;;;;;16.53;14.77;;;3.20;99.90;;;;;;4994420;28;20189;-85
2021/12/06 00:25:22;;;;;;;16.40;14.00;;;3.10;99.90;;;;;;4994546;28;20629;-85
2021/12/06 00:27:48;;;;;;;16.93;14.27;;;3.20;99.90;;;;;;4994499;28;20185;-84
2021/12/06 00:30:16;;;;;;;16.87;14.40;;;3.20;99.90;;;;;;4994379;28;20303;-84
2021/12/06 00:32:44;;;;;;;15.90;14.07;;;3.20;99.90;;;;;;4976830;28;20185;-84
2021/12/06 00:35:19;;;;;;;15.03;12.93;;;3.30;99.90;;;;;;4993201;28;20528;-84
2021/12/06 00:37:56;;;;;;;17.43;14.10;;;3.30;99.90;;;;;;4994352;28;20276;-84
2021/12/06 00:40:23;;;;;;;16.17;13.90;;;3.30;99.90;;;;;;4994408;28;20172;-85
2021/12/06 00:42:49;;;;;;;17.00;14.37;;;3.30;99.90;;;;;;4976624;28;20247;-85
2021/12/06 00:45:16;;;;;;;17.07;14.63;;;3.20;99.90;;;;;;4994112;28;20213;-85
2021/12/06 00:47:42;;;;;;;17.97;14.57;;;3.20;99.90;;;;;;4994148;28;20263;-85
2021/12/06 00:50:08;;;;;;;17.17;14.50;;;3.20;99.90;;;;;;4994023;28;20695;-86
2021/12/06 00:52:34;;;;;;;18.40;15.00;;;3.20;99.90;;;;;;4994100;28;20176;-85
2021/12/06 00:55:00;;;;;;;15.00;13.43;;;3.20;99.90;;;;;;4994023;28;20230;-87
2021/12/06 00:57:27;;;;;;;15.50;13.80;;;3.20;99.90;;;;;;4976376;28;20178;-85
2021/12/06 00:59:52;;;;;;;14.37;12.67;;;3.30;99.90;;;;;;4994118;28;20189;-84
2021/12/06 01:02:19;;;;;;;15.83;13.20;;;3.30;99.90;;;;;;4976419;28;20251;-86
2021/12/06 01:04:46;;;;;;;16.43;13.93;;;3.30;99.90;;;;;;4993718;28;20231;-85
2021/12/06 01:07:16;;;;;;;17.33;13.37;;;3.30;99.90;;;;;;4993816;28;20187;-85
2021/12/06 01:09:42;;;;;;;16.03;13.53;;;3.30;99.90;;;;;;4993893;28;20176;-86
2021/12/06 01:12:09;;;;;;;15.47;13.87;;;3.30;99.90;;;;;;4993834;28;20238;-86
2021/12/06 01:14:35;;;;;;;19.30;14.70;;;3.30;99.90;;;;;;4993667;28;20710;-85
2021/12/06 01:17:01;;;;;;;16.50;14.20;;;3.30;99.90;;;;;;4994416;28;20215;-84
2021/12/06 01:19:30;;;;;;;19.27;15.17;;;3.20;99.90;;;;;;4996048;28;20212;-84
2021/12/06 01:22:25;;;;;;;16.87;14.37;;;3.20;99.90;;;;;;5015084;28;20202;-84
2021/12/06 01:25:00;;;;;;;18.57;14.47;;;3.20;99.90;;;;;;5003452;28;20643;-84
2021/12/06 01:27:50;;;;;;;16.80;13.43;;;3.10;99.90;;;;;;4993514;28;20164;-84
2021/12/06 01:30:25;;;;;;;14.70;13.10;;;3.10;99.90;;;;;;4993365;28;20165;-84
2021/12/06 01:40:55;;;;;;;12.77;11.33;;;3.10;99.90;;;;;;5005235;28;20263;-84
2021/12/06 01:43:21;;;;;;;14.37;11.37;;;3.20;99.90;;;;;;4996856;28;20169;-85
2021/12/06 01:45:47;;;;;;;12.17;10.57;;;3.20;99.90;;;;;;4992770;28;20220;-85
2021/12/06 01:48:12;;;;;;;14.77;10.13;;;3.30;99.90;;;;;;4993027;28;20280;-85
2021/12/06 01:50:38;;;;;;;11.40;10.27;;;3.20;99.90;;;;;;4992906;28;20188;-85
2021/12/06 01:53:08;;;;;;;10.37;9.07;;;3.20;99.90;;;;;;4975283;28;20192;-85
2021/12/06 01:55:38;;;;;;;9.87;7.77;;;3.20;99.90;;;;;;4992925;28;20212;-85
2021/12/06 01:58:06;;;;;;;7.97;7.17;;;3.20;99.90;;;;;;4975110;28;20219;-84
2021/12/06 02:00:37;;;;;;;7.70;6.50;;;3.20;99.90;;;;;;4993041;28;20183;-85
2021/12/06 02:03:03;;;;;;;5.93;5.17;;;3.20;99.90;;;;;;4992742;28;20284;-84
2021/12/06 02:05:29;;;;;;;6.33;5.07;;;3.10;99.90;;;;;;4992718;28;20572;-86
2021/12/06 02:07:55;;;;;;;5.80;5.00;;;3.10;99.90;;;;;;4992610;28;20170;-85
2021/12/06 02:10:22;;;;;;;5.13;4.73;;;3.10;99.90;;;;;;4992626;28;20178;-84
2021/12/06 02:12:51;;;;;;;4.93;4.50;;;3.20;99.90;;;;;;4992452;28;20173;-85
2021/12/06 02:18:10;;;;;;;4.77;4.17;;;3.20;99.90;;;;;;4992641;28;20168;-85
2021/12/06 02:20:44;;;;;;;7.63;4.30;;;3.20;99.90;;;;;;4992426;28;20165;-85
2021/12/06 02:23:10;;;;;;;3.60;3.30;;;3.20;99.90;;;;;;4992662;28;20555;-84
2021/12/06 02:25:36;;;;;;;4.47;4.17;;;3.10;99.90;;;;;;4992069;28;20210;-85
2021/12/06 02:28:03;;;;;;;4.30;3.90;;;3.10;99.90;;;;;;4992272;28;20198;-84
2021/12/06 02:30:29;;;;;;;3.73;3.53;;;3.10;99.90;;;;;;4992090;28;20178;-85
2021/12/06 02:32:55;;;;;;;5.77;4.30;;;3.10;99.90;;;;;;4992147;28;20256;-84
2021/12/06 02:35:23;;;;;;;4.50;4.17;;;3.20;99.90;;;;;;4992145;28;20222;-84
2021/12/06 02:37:51;;;;;;;6.10;3.50;;;3.20;99.90;;;;;;4992068;28;20176;-84
2021/12/06 02:40:24;;;;;;;3.57;3.27;;;3.00;99.90;;;;;;4992051;28;20176;-85
2021/12/06 02:42:51;;;;;;;3.63;3.30;;;3.10;99.90;;;;;;4974264;28;20232;-85
2021/12/06 02:45:19;;;;;;;3.30;3.10;;;3.00;99.90;;;;;;4991977;28;20285;-84
2021/12/06 02:47:52;;;;;;;3.33;3.13;;;2.90;99.90;;;;;;4974489;28;20660;-85
2021/12/06 02:50:21;;;;;;;3.30;3.10;;;2.90;99.90;;;;;;4992197;28;20158;-86
2021/12/06 02:52:46;;;;;;;3.33;3.10;;;3.00;99.90;;;;;;4992107;28;20258;-86
2021/12/06 02:57:59;;;;;;;3.90;3.60;;;3.00;99.90;;;;;;4991477;28;20531;-85
2021/12/06 03:00:26;;;;;;;3.63;3.37;;;2.90;99.90;;;;;;4991945;28;20175;-85
2021/12/06 03:02:52;;;;;;;3.23;2.93;;;3.00;99.90;;;;;;4992236;28;20174;-85
2021/12/06 03:05:18;;;;;;;3.13;2.97;;;2.90;99.90;;;;;;4991956;28;20218;-85
2021/12/06 03:07:49;;;;;;;3.37;3.17;;;2.90;99.90;;;;;;4994946;28;20237;-85
2021/12/06 03:10:18;;;;;;;4.13;3.17;;;2.90;99.90;;;;;;5007957;28;20237;-84
2021/12/06 03:12:44;;;;;;;3.23;3.00;;;2.90;99.90;;;;;;5002280;28;20644;-85
2021/12/06 03:15:11;;;;;;;3.17;2.87;;;2.90;99.90;;;;;;4974504;28;20181;-84
2021/12/06 03:17:37;;;;;;;3.07;2.87;;;2.80;99.90;;;;;;4991498;28;20188;-84
2021/12/06 03:20:07;;;;;;;3.27;2.87;;;2.80;99.90;;;;;;4992575;28;20174;-84
2021/12/06 03:22:32;;;;;;;3.27;2.97;;;2.90;99.90;;;;;;4994041;28;20176;-84
2021/12/06 03:24:58;;;;;;;3.67;2.50;;;2.90;99.90;;;;;;4991602;28;20189;-84
2021/12/06 03:27:24;;;;;;;2.90;2.70;;;2.90;99.90;;;;;;4991566;28;20182;-84
2021/12/06 03:29:50;;;;;;;3.07;2.80;;;2.90;99.90;;;;;;4991444;28;20226;-84
2021/12/06 03:32:16;;;;;;;2.80;2.60;;;3.00;99.90;;;;;;4991460;28;20228;-84
2021/12/06 03:34:42;;;;;;;2.50;2.40;;;2.90;99.90;;;;;;4991591;28;20177;-83
2021/12/06 03:37:09;;;;;;;2.40;2.30;;;2.90;99.90;;;;;;4991553;28;20183;-84
2021/12/06 03:39:39;;;;;;;2.60;2.20;;;3.00;99.90;;;;;;4991351;28;20969;-84
2021/12/06 03:42:08;;;;;;;2.50;2.30;;;3.00;99.90;;;;;;4991161;28;20223;-85
2021/12/06 03:44:34;;;;;;;2.40;2.30;;;3.10;99.90;;;;;;4991357;28;20294;-84
2021/12/06 03:47:08;;;;;;;3.63;2.00;;;3.10;99.90;;;;;;4992022;28;20236;-84
2021/12/06 03:49:34;;;;;;;2.00;1.90;;;3.10;99.90;;;;;;4991400;28;20178;-84
2021/12/06 03:52:00;;;;;;;2.00;1.90;;;3.20;99.90;;;;;;4991497;28;20174;-85
2021/12/06 03:54:28;;;;;;;2.10;2.00;;;3.20;99.90;;;;;;4974051;28;20183;-83
2021/12/06 03:56:55;;;;;;;2.33;2.10;;;3.20;99.90;;;;;;4994073;28;20181;-83
2021/12/06 03:59:22;;;;;;;1.97;1.87;;;3.30;99.90;;;;;;4992896;28;20177;-86
2021/12/06 04:01:49;;;;;;;2.00;1.90;;;3.30;99.90;;;;;;4991461;28;20235;-86
2021/12/06 04:04:15;;;;;;;1.90;1.80;;;3.30;99.90;;;;;;4973733;28;20193;-85
2021/12/06 04:06:42;;;;;;;1.93;1.90;;;3.30;99.90;;;;;;4991170;28;20743;-85
2021/12/06 04:09:08;;;;;;;1.70;1.70;;;3.30;99.90;;;;;;4992856;28;20268;-85
2021/12/06 04:11:36;;;;;;;1.90;1.80;;;3.20;99.90;;;;;;4994891;28;20212;-86
2021/12/06 04:14:04;;;;;;;1.87;1.77;;;3.10;99.90;;;;;;4994898;28;20174;-86
2021/12/06 04:16:31;;;;;;;2.20;1.80;;;3.30;99.90;;;;;;4999010;28;20188;-86
2021/12/06 04:18:57;;;;;;;1.40;1.40;;;3.30;99.90;;;;;;4994842;28;20255;-86
2021/12/06 04:21:24;;;;;;;1.80;1.70;;;3.30;99.90;;;;;;4977178;28;20288;-87
2021/12/06 04:23:51;;;;;;;1.57;1.57;;;3.30;99.90;;;;;;4994716;28;20234;-86
2021/12/06 04:26:17;;;;;;;2.53;1.60;;;3.30;99.90;;;;;;4994534;28;20298;-85
2021/12/06 04:28:48;;;;;;;1.90;1.80;;;3.30;99.90;;;;;;4994704;28;20175;-85
2021/12/06 04:31:15;;;;;;;1.90;1.73;;;3.30;99.90;;;;;;4994750;28;20156;-84
2021/12/06 04:33:41;;;;;;;1.67;1.67;;;3.40;99.90;;;;;;4994602;28;20184;-83
2021/12/06 04:36:07;;;;;;;1.93;1.80;;;3.40;99.90;;;;;;4994436;28;20241;-84
2021/12/06 04:38:34;;;;;;;1.70;1.60;;;3.50;99.90;;;;;;4994441;28;20533;-84
2021/12/06 04:41:00;;;;;;;2.03;1.50;;;3.30;99.90;;;;;;4994198;28;20584;-84
2021/12/06 04:43:26;;;;;;;1.83;1.73;;;3.40;99.90;;;;;;4976884;28;20176;-84
2021/12/06 04:45:51;;;;;;;1.60;1.50;;;3.40;99.90;;;;;;4994238;28;20216;-84
2021/12/06 04:48:17;;;;;;;1.57;1.47;;;3.30;99.90;;;;;;4976835;28;20195;-83
2021/12/06 04:50:43;;;;;;;2.00;1.73;;;3.30;99.90;;;;;;4976642;28;20192;-84
2021/12/06 04:53:20;;;;;;;1.50;1.30;;;3.50;99.90;;;;;;4995626;28;20179;-83
2021/12/06 04:56:00;;;;;;;1.47;1.40;;;3.40;99.90;;;;;;5002400;28;20220;-83
2021/12/06 04:58:32;;;;;;;1.43;1.33;;;3.40;99.90;;;;;;5010208;28;20170;-84
2021/12/06 05:01:08;;;;;;;1.50;1.47;;;3.40;99.90;;;;;;5002807;28;20215;-83
2021/12/06 05:03:35;;;;;;;1.30;1.30;;;3.40;99.90;;;;;;5002881;28;20229;-84
2021/12/06 05:06:06;;;;;;;1.47;1.37;;;3.30;99.90;;;;;;4997641;28;20216;-84
2021/12/06 05:08:38;;;;;;;1.40;1.30;;;3.30;99.90;;;;;;4994084;28;20183;-85
2021/12/06 05:11:06;;;;;;;1.67;1.57;;;3.40;99.90;;;;;;4993749;28;20240;-85
2021/12/06 05:13:33;;;;;;;1.60;1.50;;;3.50;99.90;;;;;;4993592;28;20654;-84
2021/12/06 05:15:59;;;;;;;1.40;1.40;;;3.50;99.90;;;;;;4993847;28;20185;-84
2021/12/06 05:18:25;;;;;;;1.23;1.23;;;3.60;99.90;;;;;;4976079;28;20198;-84
2021/12/06 05:20:51;;;;;;;1.40;1.30;;;3.60;99.90;;;;;;4993322;28;20581;-84
2021/12/06 05:23:19;;;;;;;1.20;1.20;;;3.60;99.90;;;;;;4991669;28;20228;-84
2021/12/06 05:25:45;;;;;;;1.40;1.30;;;3.60;99.90;;;;;;4993383;28;20213;-84
2021/12/06 05:28:12;;;;;;;1.20;1.20;;;3.60;99.90;;;;;;4992536;28;20187;-84
2021/12/06 05:30:39;;;;;;;1.70;1.30;;;3.60;99.90;;;;;;4993426;28;20185;-84
2021/12/06 05:33:07;;;;;;;1.30;1.30;;;3.70;99.90;;;;;;4993879;28;20175;-84
2021/12/06 05:35:33;;;;;;;1.17;1.17;;;3.80;99.90;;;;;;4993220;28;20188;-85
2021/12/06 05:38:01;;;;;;;1.33;1.23;;;3.70;99.90;;;;;;4993305;28;20731;-85
2021/12/06 05:40:31;;;;;;;1.70;1.60;;;3.70;99.90;;;;;;4975751;28;20216;-85
2021/12/06 05:42:59;;;;;;;1.93;1.83;;;3.70;99.90;;;;;;4993332;28;20184;-84
2021/12/06 05:45:26;;;;;;;2.60;2.40;;;3.70;99.90;;;;;;4993185;28;20293;-85
2021/12/06 05:47:53;;;;;;;3.07;2.87;;;3.60;99.90;;;;;;4993508;28;20197;-84
2021/12/06 05:50:20;;;;;;;2.70;2.40;;;3.40;99.90;;;;;;4993032;28;20490;-85
2021/12/06 05:52:46;;;;;;;2.20;2.00;;;3.30;99.90;;;;;;4975362;28;20175;-84
2021/12/06 05:55:13;;;;;;;2.50;2.40;;;3.40;99.90;;;;;;4993046;28;20182;-86
2021/12/06 05:57:40;;;;;;;3.33;3.03;;;3.30;99.90;;;;;;4993198;28;20656;-85
2021/12/06 06:00:10;;;;;;;2.30;2.20;;;3.30;99.90;;;;;;4992767;28;20187;-85
2021/12/06 06:02:36;;;;;;;2.20;2.10;;;3.30;99.90;;;;;;4975371;28;20180;-86
2021/12/06 06:05:02;;;;;;;2.80;2.60;;;3.30;99.90;;;;;;4992815;28;20179;-86
2021/12/06 06:07:28;;;;;;;3.33;3.07;;;3.40;99.90;;;;;;4992995;28;20537;-84
2021/12/06 06:09:53;;;;;;;3.20;3.00;;;3.40;99.90;;;;;;4993122;28;20286;-84
2021/12/06 06:12:19;;;;;;;3.30;2.83;;;3.40;99.90;;;;;;4992757;28;20663;-84
2021/12/06 06:14:45;;;;;;;2.80;2.60;;;3.50;99.90;;;;;;4992686;28;20184;-84
2021/12/06 06:17:14;;;;;;;3.70;3.47;;;3.50;99.90;;;;;;4978297;28;20272;-85
2021/12/06 06:19:45;;;;;;;4.27;3.97;;;3.50;99.90;;;;;;4992197;28;20184;-84
2021/12/06 06:22:11;;;;;;;3.60;3.30;;;3.50;99.90;;;;;;4992460;28;20173;-85
2021/12/06 06:24:37;;;;;;;3.00;2.80;;;3.50;99.90;;;;;;4992424;28;20197;-85
2021/12/06 06:27:04;;;;;;;2.07;1.97;;;3.40;99.90;;;;;;4992812;28;20215;-85
2021/12/06 06:29:34;;;;;;;1.90;1.80;;;3.40;99.90;;;;;;4975075;28;20186;-85
2021/12/06 06:32:01;;;;;;;3.77;1.87;;;3.40;99.90;;;;;;4992007;28;20199;-85
2021/12/06 06:34:27;;;;;;;1.30;1.30;;;3.50;99.90;;;;;;4992568;28;20173;-85
2021/12/06 06:36:54;;;;;;;1.40;1.40;;;3.50;99.90;;;;;;4992857;28;20207;-84
2021/12/06 06:39:21;;;;;;;1.80;1.70;;;3.60;99.90;;;;;;5003133;28;20242;-85
2021/12/06 06:41:49;;;;;;;1.50;1.50;;;3.70;99.90;;;;;;5003584;28;20223;-84
2021/12/06 06:44:15;;;;;;;1.70;1.60;;;3.60;99.90;;;;;;5005871;28;20253;-83
2021/12/06 06:46:42;;;;;;;1.63;1.60;;;3.70;99.90;;;;;;5008509;28;20219;-84
2021/12/06 06:49:09;;;;;;;1.60;1.50;;;3.60;99.90;;;;;;4988871;28;20183;-84
2021/12/06 06:51:36;;;;;;;1.87;1.77;;;3.70;99.90;;;;;;4997375;28;20242;-84
2021/12/06 06:54:02;;;;;;;2.00;1.90;;;3.80;99.90;;;;;;4976795;28;20171;-85
2021/12/06 06:56:28;;;;;;;2.33;2.13;;;3.90;99.90;;;;;;4995971;28;20973;-85
2021/12/06 06:58:57;;;;;;;2.63;2.47;;;3.80;99.90;;;;;;5000385;28;20180;-84
2021/12/06 07:01:23;;;;;;;1.83;1.70;;;3.80;99.90;;;;;;4997440;28;20212;-83
2021/12/06 07:03:53;;;;;;;1.67;1.57;;;3.90;99.90;;;;;;4993708;28;20184;-85
2021/12/06 07:06:27;;;;;;;2.17;1.70;;;3.80;99.90;;;;;;4976028;28;20847;-84
2021/12/06 07:08:56;;;;;;;2.73;1.63;;;3.70;99.90;;;;;;4993232;28;20235;-83
2021/12/06 07:11:23;;;;;;;1.73;1.63;;;3.80;99.90;;;;;;4993147;28;20609;-85
2021/12/06 07:13:49;;;;;;;1.40;1.40;;;3.70;99.90;;;;;;4993940;28;20290;-87
2021/12/06 07:16:16;;;;;;;1.80;1.70;;;3.80;99.90;;;;;;4976017;28;20575;-85
2021/12/06 07:18:43;;;;;;;1.90;1.70;;;3.70;99.90;;;;;;4995475;28;20204;-85
2021/12/06 07:21:10;;;;;;;2.80;1.70;;;3.80;99.90;;;;;;4975131;28;20586;-85
2021/12/06 07:23:38;;;;;;;2.13;2.03;;;3.80;99.90;;;;;;4992879;28;20175;-85
2021/12/06 07:26:09;;;;;;;2.07;1.67;;;3.70;99.90;;;;;;4991933;28;20213;-84
2021/12/06 07:28:36;;;;;;;1.40;1.40;;;3.70;99.90;;;;;;4993132;28;20211;-85
2021/12/06 07:31:05;;;;;;;1.70;1.60;;;3.80;99.90;;;;;;4993427;28;20174;-84
2021/12/06 07:33:32;;;;;;;1.60;1.40;;;3.70;99.90;;;;;;4992702;28;20185;-84
2021/12/06 07:35:59;;;;;;;1.23;1.20;;;3.80;99.90;;;;;;4992980;28;20201;-85
2021/12/06 07:38:24;;;;;;;1.67;1.57;;;3.70;99.90;;;;;;4992444;28;20191;-85
2021/12/06 07:40:50;;;;;;;1.50;1.40;;;3.80;99.90;;;;;;4991801;28;20232;-84
2021/12/06 07:43:19;;;;;;;1.40;1.30;;;3.80;99.90;;;;;;4992860;28;20180;-84
2021/12/06 07:45:46;;;;;;;1.10;1.10;;;4.00;99.90;;;;;;4996391;28;20304;-84
2021/12/06 07:48:12;;;;;;;11.83;1.83;;;3.90;99.90;;;;;;4995828;28;20270;-83
2021/12/06 07:50:38;;;;;;;2.07;1.97;;;4.00;99.90;;;;;;4997015;28;20186;-83
2021/12/06 07:53:04;;;;;;;2.20;2.00;;;4.10;99.90;;;;;;4996657;28;20177;-84
2021/12/06 07:55:34;;;;;;;83.83;11.97;;;4.00;99.90;;;;;;4996037;28;20506;-85
2021/12/06 07:58:07;;;;;;;5.70;2.10;;;4.10;99.90;;;;;;4996796;28;20187;-85
2021/12/06 08:00:37;;;;;;;3.73;2.23;;;4.20;99.90;;;;;;4978693;28;20177;-85
2021/12/06 08:03:04;;;;;;;55.80;7.00;;;4.20;99.90;;;;;;4996638;28;20172;-85
2021/12/06 08:05:30;;;;;;;12.43;2.83;;;4.20;99.90;;;;;;4995937;28;20215;-85
2021/12/06 08:08:18;;;;;;;26.90;4.33;;;4.10;99.90;;;;;;4995895;28;20182;-86
2021/12/06 08:10:50;;;;;;;11.90;2.40;;;4.10;99.90;;;;;;4977776;28;20228;-84
2021/12/06 08:13:22;;;;;;;6.63;2.10;;;4.10;99.90;;;;;;4995911;28;20166;-86
2021/12/06 08:15:50;;;;;;;2.00;1.90;;;4.10;99.90;;;;;;4979193;28;20653;-85
2021/12/06 08:18:16;;;;;;;6.50;2.80;;;4.20;99.90;;;;;;4996693;28;20227;-86
2021/12/06 08:20:43;;;;;;;11.97;4.00;;;4.20;99.90;;;;;;5001228;28;20270;-86
2021/12/06 08:23:10;;;;;;;2.23;1.73;;;4.10;99.90;;;;;;4994834;28;20188;-85
2021/12/06 08:25:37;;;;;;;4.13;1.70;;;4.00;99.90;;;;;;5009138;28;20701;-86
2021/12/06 08:28:04;;;;;;;2.23;2.00;;;4.00;99.90;;;;;;5005016;28;20272;-85
2021/12/06 08:30:30;;;;;;;1.87;1.77;;;4.00;99.90;;;;;;5007030;28;20179;-86
2021/12/06 08:32:59;;;;;;;2.37;2.20;;;4.10;99.90;;;;;;4994006;28;20206;-85
2021/12/06 08:35:26;;;;;;;1.93;1.83;;;4.20;99.90;;;;;;5010649;28;20170;-84
2021/12/06 08:37:54;;;;;;;2.23;1.90;;;4.10;99.90;;;;;;4997682;28;20271;-84
2021/12/06 08:40:21;;;;;;;6.07;1.43;;;4.10;99.90;;;;;;4996200;28;20627;-85
2021/12/06 08:42:47;;;;;;;1.77;1.67;;;4.10;99.90;;;;;;4998444;28;20253;-86
2021/12/06 08:45:14;;;;;;;2.00;1.90;;;4.20;99.90;;;;;;4995790;28;20257;-86
2021/12/06 08:47:41;;;;;;;1.40;1.30;;;4.20;99.90;;;;;;4995523;28;20182;-85
2021/12/06 08:50:11;;;;;;;1.43;1.33;;;4.30;99.90;;;;;;4979233;28;20527;-86
2021/12/06 08:52:38;;;;;;;1.50;1.40;;;4.20;99.90;;;;;;4995638;28;20173;-85
2021/12/06 08:55:08;;;;;;;1.20;1.13;;;4.20;99.90;;;;;;4993708;28;20204;-86
2021/12/06 08:57:34;;;;;;;2.10;1.27;;;4.20;99.90;;;;;;4994717;28;20260;-85
2021/12/06 09:00:00;;;;;;;1.30;1.20;;;4.20;99.90;;;;;;4997185;28;20185;-85
2021/12/06 09:02:26;;;;;;;2.63;1.13;;;4.20;99.90;;;;;;4994802;28;20174;-85
2021/12/06 09:04:52;;;;;;;1.37;1.30;;;4.20;99.90;;;;;;4977758;28;20212;-85
2021/12/06 09:07:19;;;;;;;1.40;1.30;;;4.20;99.90;;;;;;4995739;28;20277;-85
2021/12/06 09:09:49;;;;;;;1.43;1.37;;;4.20;99.90;;;;;;4994650;28;20170;-86
2021/12/06 09:12:24;;;;;;;1.83;1.70;;;4.30;99.90;;;;;;4994606;28;20647;-85
2021/12/06 09:14:51;;;;;;;1.80;1.70;;;4.40;99.90;;;;;;4994580;28;20622;-85
2021/12/06 09:17:18;;;;;;;1.40;1.40;;;4.40;99.90;;;;;;4995292;28;20173;-84
2021/12/06 09:19:45;;;;;;;1.33;1.30;;;4.30;99.90;;;;;;4995933;28;20172;-85
2021/12/06 09:22:11;;;;;;;3.13;1.63;;;4.20;99.90;;;;;;4994810;28;20678;-85
2021/12/06 09:24:38;;;;;;;1.83;1.73;;;4.20;99.90;;;;;;4994407;28;20174;-85
2021/12/06 09:27:05;;;;;;;1.53;1.53;;;4.30;99.90;;;;;;4994293;28;20211;-85
2021/12/06 09:29:33;;;;;;;1.70;1.60;;;4.30;99.90;;;;;;4976507;28;20184;-86
2021/12/06 09:32:00;;;;;;;2.20;1.47;;;4.30;99.90;;;;;;4976948;28;20195;-86
2021/12/06 09:34:28;;;;;;;2.07;1.60;;;4.40;99.90;;;;;;4994683;28;20177;-85
2021/12/06 09:36:54;;;;;;;1.47;1.40;;;4.40;99.90;;;;;;4995907;28;20185;-87
2021/12/06 09:39:21;;;;;;;1.93;1.50;;;4.50;99.90;;;;;;4994235;28;20178;-86
2021/12/06 09:41:47;;;;;;;1.03;1.03;;;4.60;99.90;;;;;;4976037;28;20226;-86
2021/12/06 09:44:14;;;;;;;1.27;1.13;;;4.70;99.60;;;;;;4993857;28;20183;-85
2021/12/06 09:46:42;;;;;;;1.20;1.20;;;4.70;98.90;;;;;;4994219;28;20244;-87
2021/12/06 09:49:15;;;;;;;1.23;1.13;;;4.70;99.40;;;;;;4993810;28;20166;-85
2021/12/06 09:51:44;;;;;;;1.63;1.60;;;4.70;99.20;;;;;;4993916;28;20259;-85
2021/12/06 09:54:11;;;;;;;4.03;0.90;;;4.80;99.40;;;;;;4994148;28;20664;-87
2021/12/06 09:56:42;;;;;;;0.93;0.93;;;4.80;98.70;;;;;;4995612;28;20188;-87
2021/12/06 09:59:10;;;;;;;1.50;1.40;;;4.90;98.20;;;;;;4997102;28;20256;-85
2021/12/06 10:01:42;;;;;;;0.97;0.97;;;4.90;98.60;;;;;;4982906;28;20642;-85
2021/12/06 10:04:12;;;;;;;1.50;1.50;;;5.00;98.20;;;;;;4992247;28;20688;-84
2021/12/06 10:06:38;;;;;;;1.10;1.00;;;5.00;98.60;;;;;;4964799;28;20617;-84
2021/12/06 10:09:08;;;;;;;1.17;0.80;;;5.00;98.00;;;;;;4976584;28;20185;-83
2021/12/06 10:11:34;;;;;;;1.20;1.10;;;5.00;97.70;;;;;;4981788;28;20210;-84
2021/12/06 10:14:00;;;;;;;0.70;0.70;;;5.10;98.00;;;;;;4994142;28;20906;-84
2021/12/06 10:16:26;;;;;;;0.80;0.80;;;5.10;97.10;;;;;;4993723;28;20169;-84
2021/12/06 10:18:54;;;;;;;3.20;1.10;;;5.10;97.70;;;;;;5004253;28;20312;-84
2021/12/06 10:21:20;;;;;;;0.73;0.73;;;5.10;97.10;;;;;;5010861;28;20480;-85
2021/12/06 10:23:47;;;;;;;0.80;0.80;;;5.20;96.80;;;;;;5001977;28;20293;-84
2021/12/06 10:26:17;;;;;;;1.00;1.00;;;5.10;96.70;;;;;;4995081;28;20227;-85
2021/12/06 10:28:43;;;;;;;1.43;1.10;;;5.20;96.90;;;;;;4994004;28;20170;-85
2021/12/06 10:31:12;;;;;;;0.97;0.97;;;5.20;96.90;;;;;;4993842;28;20184;-85
2021/12/06 10:33:45;;;;;;;1.17;1.17;;;5.30;97.20;;;;;;4981202;28;20209;-85
2021/12/06 10:36:15;;;;;;;5.73;1.37;;;5.40;97.20;;;;;;4977252;28;20182;-84
2021/12/06 10:38:51;;;;;;;1.23;1.00;;;5.40;97.20;;;;;;4993162;28;20219;-85
2021/12/06 10:41:19;;;;;;;2.00;0.70;;;5.40;96.30;;;;;;4992596;28;20159;-86
2021/12/06 10:43:55;;;;;;;1.93;1.20;;;5.40;96.50;;;;;;4975324;28;20213;-85
2021/12/06 10:46:23;;;;;;;1.37;0.90;;;5.40;96.10;;;;;;4992851;28;20254;-85
2021/12/06 10:48:53;;;;;;;0.77;0.67;;;5.50;96.30;;;;;;4992613;28;20225;-85
2021/12/06 10:51:20;;;;;;;1.00;0.93;;;5.50;95.60;;;;;;4992970;28;20179;-85
2021/12/06 10:53:58;;;;;;;1.33;1.10;;;5.50;95.60;;;;;;4992467;28;20184;-86
2021/12/06 10:56:36;;;;;;;3.13;1.10;;;5.50;96.00;;;;;;4992352;28;20165;-85
2021/12/06 10:59:10;;;;;;;0.60;0.60;;;5.60;95.60;;;;;;4992540;28;20643;-84
2021/12/06 11:01:36;;;;;;;0.80;0.80;;;5.50;95.20;;;;;;4992473;28;20170;-84
2021/12/06 11:04:06;;;;;;;0.90;0.90;;;5.50;94.90;;;;;;4992226;28;20198;-84
2021/12/06 11:06:41;;;;;;;0.97;0.97;;;5.50;95.00;;;;;;4992087;28;20221;-86
2021/12/06 11:09:07;;;;;;;2.20;1.30;;;5.50;95.40;;;;;;4992260;28;20176;-84
2021/12/06 11:11:42;;;;;;;1.30;1.20;;;5.50;95.20;;;;;;4992537;28;20193;-84
2021/12/06 11:14:14;;;;;;;1.50;1.40;;;5.50;94.90;;;;;;4974775;28;20176;-86
2021/12/06 11:16:43;;;;;;;1.70;1.03;;;5.60;94.90;;;;;;4995693;28;20173;-85
2021/12/06 11:19:12;;;;;;;0.90;0.90;;;5.60;94.90;;;;;;4978477;28;20212;-85
2021/12/06 11:21:50;;;;;;;0.87;0.80;;;5.60;94.80;;;;;;4996999;28;20590;-85
2021/12/06 11:24:40;;;;;;;4.73;0.87;;;5.60;94.70;;;;;;4995582;28;20170;-84
2021/12/06 11:27:21;;;;;;;0.83;0.83;;;5.60;94.50;;;;;;4993367;28;20201;-84
2021/12/06 11:29:55;;;;;;;1.10;1.00;;;5.60;94.30;;;;;;4991995;28;20224;-85
2021/12/06 11:32:40;;;;;;;1.43;0.83;;;5.60;94.60;;;;;;4991970;28;20236;-85
2021/12/06 11:35:28;;;;;;;1.00;1.00;;;5.60;93.90;;;;;;4991912;28;20177;-87
2021/12/06 11:37:59;;;;;;;0.83;0.83;;;5.70;94.30;;;;;;4993410;28;20154;-85
2021/12/06 11:40:35;;;;;;;1.40;1.30;;;5.70;94.80;;;;;;4992473;28;20165;-85
2021/12/06 11:43:10;;;;;;;1.40;1.30;;;5.70;94.90;;;;;;4992005;28;20291;-86
2021/12/06 11:45:58;;;;;;;1.73;0.90;;;5.80;93.50;;;;;;4991967;28;20198;-86
2021/12/06 11:48:27;;;;;;;1.33;1.23;;;5.80;93.40;;;;;;5003639;28;20162;-84
2021/12/06 11:51:09;;;;;;;1.33;1.23;;;5.80;94.00;;;;;;5000159;28;20525;-85
2021/12/06 11:53:43;;;;;;;2.03;1.17;;;5.70;93.60;;;;;;5002181;28;20216;-84
2021/12/06 11:56:12;;;;;;;1.37;0.90;;;5.80;93.20;;;;;;4992340;28;20197;-84
2021/12/06 11:58:44;;;;;;;0.70;0.70;;;5.80;92.80;;;;;;4994494;28;20178;-85
2021/12/06 12:01:18;;;;;;;1.03;1.03;;;5.80;93.10;;;;;;4992135;28;20248;-85
2021/12/06 12:03:48;;;;;;;1.47;0.77;;;5.80;93.50;;;;;;4992176;28;20184;-86
2021/12/06 12:06:27;;;;;;;1.13;0.90;;;5.80;92.80;;;;;;5005538;28;20201;-85
2021/12/06 12:09:20;;;;;;;1.23;0.80;;;5.80;92.50;;;;;;5006539;28;20165;-85
2021/12/06 12:12:19;;;;;;;0.97;0.80;;;5.80;92.50;;;;;;4993730;28;20165;-85
2021/12/06 12:14:54;;;;;;;1.13;1.10;;;5.80;91.90;;;;;;4974106;28;20181;-85
2021/12/06 12:17:24;;;;;;;0.77;0.77;;;5.80;92.30;;;;;;4992676;28;20158;-84
2021/12/06 12:19:52;;;;;;;3.73;1.27;;;5.80;92.00;;;;;;4993709;28;20206;-85
2021/12/06 12:22:19;;;;;;;1.10;0.70;;;5.70;91.80;;;;;;4991845;28;20166;-85
2021/12/06 12:24:50;;;;;;;0.90;0.90;;;5.80;91.80;;;;;;4991547;28;20171;-85
2021/12/06 12:29:46;;;;;;;1.43;1.23;;;5.80;91.80;;;;;;4992473;28;20753;-84
2021/12/06 12:32:14;;;;;;;1.47;1.37;;;5.80;92.00;;;;;;4996058;28;20173;-85
2021/12/06 12:34:45;;;;;;;1.10;1.00;;;5.80;91.60;;;;;;4995838;28;20170;-83
2021/12/06 12:37:13;;;;;;;1.50;0.80;;;5.70;91.50;;;;;;4977527;28;20236;-83
2021/12/06 12:39:39;;;;;;;1.40;0.80;;;5.70;91.40;;;;;;4995208;28;20668;-83
2021/12/06 12:42:07;;;;;;;2.73;0.80;;;5.70;90.90;;;;;;4994643;28;20250;-85
2021/12/06 12:44:47;;;;;;;6.40;1.30;;;5.70;90.90;;;;;;4995182;28;20200;-85
2021/12/06 12:47:20;;;;;;;1.07;0.83;;;5.70;91.40;;;;;;4995241;28;20205;-84
2021/12/06 12:49:48;;;;;;;0.80;0.80;;;5.80;91.40;;;;;;4994626;28;20162;-84
2021/12/06 12:52:16;;;;;;;0.90;0.90;;;5.70;91.60;;;;;;4995521;28;20178;-85
2021/12/06 12:54:44;;;;;;;1.97;1.00;;;5.70;91.80;;;;;;4995781;28;20232;-85
2021/12/06 12:57:14;;;;;;;1.27;0.83;;;5.70;91.40;;;;;;4994522;28;20180;-84
2021/12/06 12:59:54;;;;;;;1.43;1.07;;;5.80;91.50;;;;;;4994226;28;20720;-86
2021/12/06 13:02:27;;;;;;;2.57;0.90;;;5.70;91.60;;;;;;4977211;28;20177;-83
2021/12/06 13:04:58;;;;;;;0.90;0.83;;;5.80;91.40;;;;;;4994500;28;20179;-83
2021/12/06 13:07:25;;;;;;;2.43;0.90;;;5.70;90.70;;;;;;4993891;28;20262;-86
2021/12/06 13:09:52;;;;;;;1.23;0.90;;;5.70;91.00;;;;;;4994243;28;20624;-84
2021/12/06 13:12:18;;;;;;;1.60;0.70;;;5.80;91.00;;;;;;4994408;28;20173;-84
2021/12/06 13:14:50;;;;;;;1.53;1.03;;;5.80;90.90;;;;;;4994219;28;20181;-85
2021/12/06 13:17:42;;;;;;;0.50;0.50;;;5.80;90.60;;;;;;4997674;28;20160;-83